»·PEaware :: N5002T KBUR-KONT

N5002T :: KBUR-KONT

FLIGHT INFORMATION

Flight Status: Arrived
Operator: Privately registered:
United States
More flights under this callsign
Pilot: Hunter M. (19355)
Aircraft: CESSNA 172 SKYHAWK
(C172)
More flights by this aircraft type
Origin: KBUR Bob Hope-Burbank
United States
Destination: KONT Ontario Intl
United States
More flights between these airports :: More routes between these airports
Route: ELMOO8 ELMOO V186 PDZ
File this flight plan on PilotEdge
Remarks:
Altitude:
(Current/Filed)
5,000ft
Speed:
(Current/Filed)
120kts
Departed: 24-Oct-18 11:48 AM
Arrived: 24-Oct-18 12:35 PM
Distance/Time
Traveled:
39nm/0:47
Distance/Time
To Go:
Arrived

Flight Plot

Page will automatically refresh every two minutes.


Map Options




Map Legend


Flown Route
Filed Route
Departure Airport
Arrival Airport
Navaid (VOR, NDB)
Fix

Horizontal Profiles

Position Reports

Time Latitude Longitude Heading Altitude Ground
Speed
24-Oct-18 11:27 34.195747 -118.359579 180 781ft 0kts
24-Oct-18 11:28 34.195747 -118.359579 180 781ft 0kts
24-Oct-18 11:29 34.195747 -118.359579 180 781ft 0kts
24-Oct-18 11:30 34.195747 -118.359579 180 781ft 0kts
24-Oct-18 11:31 34.195747 -118.359579 180 781ft 0kts
24-Oct-18 11:32 34.195747 -118.359579 180 781ft 0kts
24-Oct-18 11:33 34.195747 -118.359579 180 781ft 0kts
24-Oct-18 11:34 34.195747 -118.359579 180 781ft 0kts
24-Oct-18 11:35 34.195747 -118.359579 180 781ft 0kts
24-Oct-18 11:36 34.195747 -118.359579 180 781ft 0kts
24-Oct-18 11:37 34.195747 -118.359579 180 781ft 0kts
24-Oct-18 11:38 34.195747 -118.359579 180 781ft 0kts
24-Oct-18 11:39 34.195747 -118.359579 180 781ft 0kts
24-Oct-18 11:40 34.195747 -118.359579 180 781ft 0kts
24-Oct-18 11:41 34.195833 -118.359832 300 781ft 1kts
24-Oct-18 11:42 34.196000 -118.360137 309 781ft 1kts
24-Oct-18 11:43 34.196648 -118.360772 265 781ft 2kts
24-Oct-18 11:44 34.196637 -118.361118 270 781ft 0kts
24-Oct-18 11:45 34.196656 -118.361628 271 781ft 7kts
24-Oct-18 11:46 34.196738 -118.367295 271 781ft 10kts
24-Oct-18 11:47 34.197180 -118.369002 354 781ft 0kts
24-Oct-18 11:48 34.197181 -118.369002 354 781ft 0kts
24-Oct-18 11:49 34.197910 -118.368685 76 781ft 5kts
24-Oct-18 11:50 34.197937 -118.350838 90 1209ft 75kts
24-Oct-18 11:51 34.185560 -118.331517 141 2022ft 79kts
24-Oct-18 11:52 34.169582 -118.310474 122 2725ft 95kts
24-Oct-18 11:53 34.164177 -118.278454 89 3441ft 98kts
24-Oct-18 11:54 34.160027 -118.246274 123 4148ft 98kts
24-Oct-18 11:55 34.139978 -118.215714 126 3996ft 125kts
24-Oct-18 11:56 34.126340 -118.181393 110 4403ft 105kts
24-Oct-18 11:57 34.118590 -118.148286 106 4969ft 103kts
24-Oct-18 11:58 34.109471 -118.110028 111 4962ft 136kts
24-Oct-18 11:59 34.098112 -118.073192 113 4988ft 110kts
24-Oct-18 12:00 34.084682 -118.038793 117 5027ft 116kts
24-Oct-18 12:01 34.071643 -118.002830 113 5024ft 115kts
24-Oct-18 12:02 34.059877 -117.966834 113 5006ft 115kts
24-Oct-18 12:03 34.048229 -117.930954 113 5008ft 115kts
24-Oct-18 12:04 34.036632 -117.895304 113 5009ft 115kts
24-Oct-18 12:05 34.024797 -117.859004 110 5027ft 116kts
24-Oct-18 12:06 34.012904 -117.822587 110 5026ft 117kts
24-Oct-18 12:07 34.000970 -117.786021 110 5026ft 117kts
24-Oct-18 12:08 33.989091 -117.749643 110 5023ft 115kts
24-Oct-18 12:09 33.977833 -117.714825 110 5024ft 109kts
24-Oct-18 12:10 33.966668 -117.680558 110 5026ft 109kts
24-Oct-18 12:11 33.958935 -117.645445 95 5024ft 109kts
24-Oct-18 12:12 33.954732 -117.609218 95 5021ft 109kts
24-Oct-18 12:13 33.950526 -117.572964 95 5017ft 109kts
24-Oct-18 12:14 33.946412 -117.536737 96 5017ft 109kts
24-Oct-18 12:15 33.942429 -117.500490 95 5016ft 109kts
24-Oct-18 12:16 33.938367 -117.464304 95 5015ft 109kts
24-Oct-18 12:17 33.934274 -117.427751 95 5104ft 120kts
24-Oct-18 12:18 33.930679 -117.384917 95 4969ft 111kts
24-Oct-18 12:19 33.927782 -117.349531 95 5007ft 106kts
24-Oct-18 12:20 33.922996 -117.314271 95 5001ft 106kts
24-Oct-18 12:21 33.930440 -117.286337 23 5015ft 98kts
24-Oct-18 12:22 33.955256 -117.270138 23 5005ft 103kts
24-Oct-18 12:23 33.980494 -117.253724 23 5003ft 103kts
24-Oct-18 12:24 34.005763 -117.237287 23 5003ft 103kts
24-Oct-18 12:25 34.026953 -117.238793 291 5024ft 90kts
24-Oct-18 12:26 34.036888 -117.267540 291 5002ft 93kts
24-Oct-18 12:27 34.046900 -117.296471 291 5002ft 93kts
24-Oct-18 12:28 34.056375 -117.325462 272 4997ft 93kts
24-Oct-18 12:29 34.056234 -117.358180 270 4756ft 106kts
24-Oct-18 12:30 34.055816 -117.394146 265 4031ft 105kts
24-Oct-18 12:31 34.054770 -117.428896 267 3393ft 99kts
24-Oct-18 12:32 34.054450 -117.461033 272 2910ft 94kts
24-Oct-18 12:33 34.055306 -117.492692 266 2448ft 91kts
24-Oct-18 12:34 34.054589 -117.520607 268 1931ft 80kts
24-Oct-18 12:35 34.054692 -117.546732 269 1578ft 75kts
24-Oct-18 12:36 34.054790 -117.571097 268 1176ft 69kts
24-Oct-18 12:37 34.054966 -117.587540 264 947ft 0kts
24-Oct-18 12:38 34.054281 -117.589919 177 947ft 0kts
24-Oct-18 12:39 34.054280 -117.589919 177 947ft 0kts
24-Oct-18 12:40 34.054210 -117.589916 177 947ft 5kts
24-Oct-18 12:41 34.053672 -117.593331 272 947ft 12kts
24-Oct-18 12:42 34.053627 -117.596945 273 947ft 10kts
24-Oct-18 12:43 34.053678 -117.600450 272 947ft 14kts
24-Oct-18 12:44 34.053239 -117.602762 168 947ft 8kts
24-Oct-18 12:45 34.052425 -117.601399 91 947ft 1kts

Navigation Log

Ident Type
Flight plan parsing failed, navigation log unavailable